Time;durP1;ratioP1;P1;durP2;ratioP2;P2;SDS_P1;SDS_P2;PMS_P1;PMS_P2;Temp;Humidity;BMP_temperature;BMP_pressure;BME280_temperature;BME280_humidity;BME280_pressure;Samples;Min_cycle;Max_cycle;Signal;HPM_P1;HPM_P2
2022/07/04 00:00:37;;;;;;;1.17;1.02;;;20.60;78.10;20.90;100463.00;;;;4893226;28;110440;-62
2022/07/04 00:03:03;;;;;;;1.17;1.15;;;20.70;78.10;20.90;100476.00;;;;4891673;28;108984;-62
2022/07/04 00:05:29;;;;;;;1.20;1.10;;;20.70;78.40;20.90;100486.00;;;;4874944;28;95485;-62
2022/07/04 00:07:55;;;;;;;1.50;1.05;;;20.70;78.60;20.90;100469.00;;;;4891369;28;122840;-62
2022/07/04 00:10:20;;;;;;;0.93;0.90;;;20.90;78.90;20.90;100470.00;;;;4876963;28;93455;-62
2022/07/04 00:12:46;;;;;;;1.75;1.27;;;20.70;79.30;20.90;100468.00;;;;4894977;28;92971;-62
2022/07/04 00:15:13;;;;;;;1.80;1.40;;;20.70;79.70;20.90;100477.00;;;;4895657;28;114295;-62
2022/07/04 00:17:40;;;;;;;1.13;1.02;;;20.70;79.80;20.90;100485.00;;;;4896443;28;122023;-62
2022/07/04 00:20:08;;;;;;;1.83;1.23;;;20.70;80.10;20.80;100484.00;;;;4897224;28;92829;-62
2022/07/04 00:22:34;;;;;;;1.00;0.90;;;20.70;80.50;20.80;100498.00;;;;4897522;28;93336;-62
2022/07/04 00:25:00;;;;;;;2.08;1.40;;;20.60;80.70;20.70;100496.00;;;;4896135;28;93386;-62
2022/07/04 00:27:26;;;;;;;0.65;0.65;;;20.60;81.00;20.70;100494.00;;;;4895805;28;121749;-62
2022/07/04 00:29:52;;;;;;;2.00;0.90;;;20.50;81.40;20.60;100496.00;;;;4896994;28;92838;-62
2022/07/04 00:32:18;;;;;;;2.05;1.08;;;20.50;81.60;20.50;100502.00;;;;4895846;28;108899;-61
2022/07/04 00:34:44;;;;;;;1.83;1.38;;;20.40;82.00;20.50;100515.00;;;;4895159;28;121835;-61
2022/07/04 00:37:10;;;;;;;1.27;1.13;;;20.40;82.30;20.50;100511.00;;;;4895330;28;123005;-61
2022/07/04 00:39:36;;;;;;;2.42;1.50;;;20.30;82.50;20.40;100507.00;;;;4896516;28;92892;-61
2022/07/04 00:42:02;;;;;;;2.85;1.10;;;20.30;82.90;20.40;100510.00;;;;4897226;28;92977;-61
2022/07/04 00:44:29;;;;;;;2.58;1.30;;;20.30;83.20;20.40;100509.00;;;;4896148;28;94211;-61
2022/07/04 00:46:55;;;;;;;1.55;1.15;;;20.20;83.70;20.30;100505.00;;;;4896219;28;92563;-62
2022/07/04 00:49:21;;;;;;;1.40;1.30;;;20.20;84.20;20.30;100515.00;;;;4894476;28;111562;-62
2022/07/04 00:51:47;;;;;;;1.67;1.38;;;20.20;84.40;20.30;100508.00;;;;4896797;28;93033;-62
2022/07/04 00:54:17;;;;;;;2.63;1.20;;;20.10;84.70;20.20;100504.00;;;;4876855;28;123867;-61
2022/07/04 00:56:44;;;;;;;1.60;1.17;;;20.10;85.10;20.20;100514.00;;;;4895811;28;94155;-62
2022/07/04 00:59:11;;;;;;;1.25;1.15;;;20.00;85.50;20.10;100508.00;;;;4896356;28;92847;-61
2022/07/04 01:01:38;;;;;;;1.38;1.27;;;20.00;85.90;20.00;100516.00;;;;4890426;28;92813;-62
2022/07/04 01:04:05;;;;;;;3.03;1.42;;;19.90;86.40;20.00;100512.00;;;;4880323;28;93841;-62
2022/07/04 01:06:32;;;;;;;1.90;1.55;;;19.90;87.00;19.90;100499.00;;;;4876527;28;93679;-62
2022/07/04 01:09:00;;;;;;;1.50;1.40;;;19.80;87.70;19.90;100510.00;;;;4876715;28;99798;-62
2022/07/04 01:11:26;;;;;;;1.85;1.30;;;19.80;88.20;19.80;100525.00;;;;4876560;28;92836;-62
2022/07/04 01:13:54;;;;;;;1.95;1.42;;;19.70;88.80;19.80;100525.00;;;;4875050;28;92348;-61
2022/07/04 01:16:20;;;;;;;1.20;1.10;;;19.60;89.40;19.70;100523.00;;;;4876564;28;93254;-62
2022/07/04 01:18:46;;;;;;;2.25;1.45;;;19.60;89.80;19.60;100518.00;;;;4877395;28;92717;-61
2022/07/04 01:21:11;;;;;;;1.35;1.25;;;19.50;90.10;19.60;100523.00;;;;4875603;28;93879;-62
2022/07/04 01:23:41;;;;;;;1.40;1.30;;;19.50;90.30;19.50;100519.00;;;;4875598;28;123527;-62
2022/07/04 01:26:07;;;;;;;1.38;0.95;;;19.40;90.60;19.50;100522.00;;;;4875494;28;119031;-61
2022/07/04 01:28:33;;;;;;;1.88;1.15;;;19.40;90.90;19.40;100525.00;;;;4876858;28;92666;-62
2022/07/04 01:30:59;;;;;;;1.50;1.30;;;19.30;91.00;19.40;100523.00;;;;4877080;28;92692;-62
2022/07/04 01:33:25;;;;;;;1.45;1.35;;;19.30;91.30;19.40;100535.00;;;;4881362;28;93926;-63
2022/07/04 01:35:51;;;;;;;2.35;1.30;;;19.20;91.50;19.30;100547.00;;;;4895505;28;94087;-62
2022/07/04 01:38:17;;;;;;;3.88;1.63;;;19.20;91.80;19.30;100552.00;;;;4895298;28;110565;-63
2022/07/04 01:40:42;;;;;;;1.15;1.05;;;19.20;92.20;19.20;100551.00;;;;4895100;28;107716;-62
2022/07/04 01:43:08;;;;;;;2.45;2.03;;;19.10;92.40;19.20;100564.00;;;;4895290;28;103507;-62
2022/07/04 01:45:37;;;;;;;1.60;0.90;;;19.10;92.70;19.10;100563.00;;;;4894132;28;99291;-62
2022/07/04 01:48:07;;;;;;;4.50;1.55;;;19.00;93.00;19.10;100574.00;;;;4895956;28;92636;-62
2022/07/04 01:50:34;;;;;;;3.00;1.42;;;19.00;93.40;19.00;100573.00;;;;4895248;28;92930;-62
2022/07/04 01:53:00;;;;;;;1.30;1.20;;;18.90;93.70;19.00;100573.00;;;;4894301;28;109320;-62
2022/07/04 01:55:27;;;;;;;1.75;1.65;;;18.90;94.00;19.00;100578.00;;;;4894802;28;97217;-63
2022/07/04 01:57:52;;;;;;;4.43;1.35;;;18.90;94.20;18.90;100590.00;;;;4877461;28;93605;-62
2022/07/04 02:03:03;;;;;;;2.25;1.58;;;18.70;94.50;18.90;100589.00;;;;4895352;28;92229;-62
2022/07/04 02:05:29;;;;;;;2.60;1.30;;;18.80;94.70;18.90;100586.00;;;;4894236;28;104318;-62
2022/07/04 02:07:54;;;;;;;1.90;1.80;;;18.70;94.90;18.90;100592.00;;;;4894734;28;109427;-62
2022/07/04 02:10:20;;;;;;;1.60;1.38;;;18.70;95.10;18.80;100597.00;;;;4893403;28;109386;-62
2022/07/04 02:13:01;;;;;;;1.23;1.13;;;18.70;95.40;18.80;100601.00;;;;4894271;28;123014;-62
2022/07/04 02:15:40;;;;;;;1.52;1.27;;;18.70;95.60;18.70;100602.00;;;;4895096;28;92909;-62
2022/07/04 02:18:08;;;;;;;2.15;1.30;;;18.70;96.00;18.70;100605.00;;;;4895229;28;92906;-62
2022/07/04 02:20:36;;;;;;;1.25;0.98;;;18.60;96.20;18.60;100605.00;;;;4895359;28;93006;-62
2022/07/04 02:23:03;;;;;;;1.63;1.52;;;18.50;96.40;18.60;100605.00;;;;4895028;28;98659;-62
2022/07/04 02:25:29;;;;;;;1.42;1.33;;;18.50;96.70;18.50;100607.00;;;;4895271;28;98172;-62
2022/07/04 02:27:55;;;;;;;1.60;1.50;;;18.40;96.90;18.50;100603.00;;;;4895536;28;91956;-62
2022/07/04 02:30:22;;;;;;;1.77;1.55;;;18.40;97.10;18.40;100601.00;;;;4895556;28;92804;-62
2022/07/04 02:32:47;;;;;;;2.08;1.88;;;18.40;97.50;18.40;100602.00;;;;4893855;28;110785;-62
2022/07/04 02:35:13;;;;;;;1.55;1.45;;;18.30;97.70;18.30;100615.00;;;;4874869;28;93785;-62
2022/07/04 02:37:40;;;;;;;4.07;1.80;;;18.20;98.10;18.30;100616.00;;;;4875808;28;92751;-62
2022/07/04 02:40:07;;;;;;;2.78;1.42;;;18.20;98.40;18.20;100616.00;;;;4857824;28;92806;-62
2022/07/04 02:42:34;;;;;;;4.40;1.73;;;18.20;98.60;18.20;100620.00;;;;4874761;28;93099;-63
2022/07/04 02:45:00;;;;;;;1.55;1.45;;;18.10;98.90;18.10;100627.00;;;;4889494;28;92864;-62
2022/07/04 02:47:26;;;;;;;3.00;1.23;;;18.10;99.10;18.10;100639.00;;;;4875118;28;108402;-62
2022/07/04 02:49:52;;;;;;;3.45;1.77;;;18.00;99.50;18.10;100638.00;;;;4875449;28;92852;-63
2022/07/04 02:52:18;;;;;;;1.65;1.40;;;18.00;99.80;18.10;100649.00;;;;4890384;28;92041;-62
2022/07/04 02:54:45;;;;;;;1.33;1.23;;;18.00;99.90;18.10;100648.00;;;;4875151;28;92942;-62
2022/07/04 02:57:11;;;;;;;2.70;1.40;;;18.00;99.90;18.10;100653.00;;;;4875415;28;92696;-62
2022/07/04 02:59:37;;;;;;;2.63;1.17;;;17.90;99.90;18.10;100655.00;;;;4875286;28;93746;-63
2022/07/04 03:02:03;;;;;;;1.33;1.23;;;17.90;99.90;18.10;100649.00;;;;4874480;28;123000;-62
2022/07/04 03:04:28;;;;;;;0.95;0.95;;;17.90;99.90;18.10;100657.00;;;;4875155;28;94005;-61
2022/07/04 03:06:54;;;;;;;1.98;1.33;;;18.00;99.90;18.10;100653.00;;;;4875064;28;110696;-62
2022/07/04 03:09:20;;;;;;;0.95;0.95;;;17.90;99.90;18.10;100645.00;;;;4874218;28;109051;-61
2022/07/04 03:11:45;;;;;;;1.63;1.52;;;18.00;99.90;18.10;100654.00;;;;4873108;28;123403;-61
2022/07/04 03:14:11;;;;;;;1.80;1.20;;;17.90;99.90;18.10;100657.00;;;;4873998;28;122250;-63
2022/07/04 03:16:37;;;;;;;1.58;1.25;;;18.00;99.90;18.10;100660.00;;;;4875388;28;105897;-63
2022/07/04 03:19:03;;;;;;;1.58;0.98;;;18.00;99.90;18.10;100654.00;;;;4875581;28;92790;-62
2022/07/04 03:21:29;;;;;;;1.20;1.13;;;18.00;99.90;18.10;100664.00;;;;4874731;28;106714;-62
2022/07/04 03:23:58;;;;;;;1.60;1.23;;;17.90;99.90;18.10;100663.00;;;;4873138;28;124046;-62
2022/07/04 03:26:31;;;;;;;1.60;1.35;;;18.00;99.90;18.10;100667.00;;;;4875739;28;92661;-62
2022/07/04 03:28:59;;;;;;;1.95;1.33;;;18.00;99.90;18.10;100668.00;;;;4889518;28;92842;-63
2022/07/04 03:31:26;;;;;;;0.50;0.50;;;18.00;99.90;18.10;100680.00;;;;4874963;28;93860;-63
2022/07/04 03:33:52;;;;;;;1.10;1.00;;;18.00;99.90;18.10;100690.00;;;;4882917;28;93724;-62
2022/07/04 03:36:20;;;;;;;3.58;1.63;;;18.00;99.90;18.10;100690.00;;;;4893627;28;92612;-62
2022/07/04 03:38:46;;;;;;;1.10;1.10;;;18.00;99.90;18.10;100689.00;;;;4894347;28;92666;-62
2022/07/04 03:41:13;;;;;;;1.23;1.13;;;18.00;99.90;18.10;100700.00;;;;4903021;28;92170;-62
2022/07/04 03:43:39;;;;;;;3.03;1.33;;;18.00;99.90;18.10;100699.00;;;;4875245;28;92810;-62
2022/07/04 03:46:04;;;;;;;1.70;1.60;;;18.00;99.90;18.10;100693.00;;;;4895944;28;110969;-62
2022/07/04 03:48:30;;;;;;;1.77;1.38;;;18.10;99.90;18.20;100699.00;;;;4895631;28;104391;-63
2022/07/04 03:50:56;;;;;;;4.57;0.95;;;18.00;99.90;18.20;100700.00;;;;4896897;28;93253;-62
2022/07/04 03:53:22;;;;;;;1.15;1.05;;;18.00;99.90;18.20;100706.00;;;;4896482;28;100014;-63
2022/07/04 03:55:48;;;;;;;1.30;1.20;;;18.10;99.90;18.20;100708.00;;;;4897337;28;93083;-62
2022/07/04 03:58:13;;;;;;;1.50;1.40;;;18.10;99.90;18.30;100716.00;;;;4896587;28;92859;-63
2022/07/04 04:00:41;;;;;;;3.60;1.35;;;18.10;99.90;18.30;100722.00;;;;4896001;28;122838;-64
2022/07/04 04:05:53;;;;;;;1.17;1.08;;;18.10;99.90;18.50;100722.00;;;;4896662;28;91940;-64
2022/07/04 04:08:18;;;;;;;1.10;1.10;;;18.30;99.90;18.60;100730.00;;;;4895925;28;96742;-63
2022/07/04 04:10:44;;;;;;;1.15;1.05;;;18.40;99.90;18.70;100736.00;;;;4893418;28;117385;-63
2022/07/04 04:13:10;;;;;;;1.55;1.13;;;18.40;99.90;18.80;100745.00;;;;4894943;28;122889;-63
2022/07/04 04:15:35;;;;;;;5.47;1.77;;;18.60;99.90;18.90;100744.00;;;;4895843;28;110464;-63
2022/07/04 04:18:01;;;;;;;0.93;0.90;;;18.70;99.90;18.90;100738.00;;;;4895628;28;108427;-64
2022/07/04 04:20:27;;;;;;;1.40;1.30;;;18.70;99.90;19.00;100731.00;;;;4896095;28;120412;-64
2022/07/04 04:22:52;;;;;;;0.80;0.80;;;18.80;99.90;19.10;100736.00;;;;4895077;28;122350;-62
2022/07/04 04:25:18;;;;;;;0.82;0.82;;;18.90;99.90;19.20;100736.00;;;;4895955;28;110791;-63
2022/07/04 04:27:44;;;;;;;1.85;1.13;;;19.00;99.90;19.30;100740.00;;;;4895314;28;109241;-63
2022/07/04 04:30:10;;;;;;;0.63;0.63;;;19.10;99.90;19.40;100753.00;;;;4895676;28;123287;-64
2022/07/04 04:32:36;;;;;;;2.35;1.25;;;19.20;99.90;19.40;100749.00;;;;4895202;28;109965;-64
2022/07/04 04:35:01;;;;;;;1.13;1.02;;;19.30;99.90;19.50;100747.00;;;;4894465;28;109743;-63
2022/07/04 04:37:27;;;;;;;1.40;1.10;;;19.30;99.90;19.60;100750.00;;;;4896251;28;93534;-64
2022/07/04 04:39:53;;;;;;;1.05;0.95;;;19.40;99.90;19.70;100756.00;;;;4892581;28;113649;-64
2022/07/04 04:42:18;;;;;;;1.92;1.00;;;19.50;99.90;19.80;100758.00;;;;4891631;28;121905;-63
2022/07/04 04:44:44;;;;;;;1.17;1.00;;;19.60;99.90;19.90;100755.00;;;;4892708;28;92725;-64
2022/07/04 04:47:10;;;;;;;1.80;1.27;;;19.60;99.90;19.90;100763.00;;;;4892420;28;107851;-62
2022/07/04 04:49:35;;;;;;;1.20;0.90;;;19.70;99.90;20.00;100771.00;;;;4891507;28;122726;-63
2022/07/04 04:52:01;;;;;;;1.95;0.90;;;19.70;99.90;20.00;100776.00;;;;4891489;28;104774;-62
2022/07/04 04:54:27;;;;;;;4.05;1.25;;;19.80;99.90;20.10;100773.00;;;;4874120;28;92017;-63
2022/07/04 04:56:52;;;;;;;1.27;1.10;;;19.90;99.60;20.10;100789.00;;;;4891973;28;94364;-63
2022/07/04 04:59:18;;;;;;;1.05;0.90;;;19.90;99.30;20.20;100783.00;;;;4891268;28;123531;-64
2022/07/04 05:01:44;;;;;;;1.60;1.23;;;20.00;98.90;20.30;100789.00;;;;4893256;28;106257;-64
2022/07/04 05:04:10;;;;;;;1.00;0.90;;;20.00;98.70;20.30;100791.00;;;;4895605;28;92794;-62
2022/07/04 05:06:35;;;;;;;0.70;0.68;;;20.10;98.50;20.40;100789.00;;;;4895953;28;92989;-64
2022/07/04 05:09:01;;;;;;;2.03;1.25;;;20.20;98.30;20.50;100792.00;;;;4893879;28;123648;-63
2022/07/04 05:11:27;;;;;;;0.93;0.90;;;20.20;98.20;20.50;100790.00;;;;4877713;28;93856;-64
2022/07/04 05:13:53;;;;;;;1.48;1.10;;;20.30;97.90;20.60;100792.00;;;;4895393;28;109821;-64
2022/07/04 05:16:18;;;;;;;1.95;1.08;;;20.40;97.70;20.70;100787.00;;;;4909790;28;92999;-63
2022/07/04 05:18:44;;;;;;;3.15;0.90;;;20.50;97.30;20.80;100782.00;;;;4895929;28;92973;-64
2022/07/04 05:21:10;;;;;;;2.70;1.02;;;20.60;97.20;20.90;100791.00;;;;4894396;28;96237;-64
2022/07/04 05:23:35;;;;;;;1.00;0.88;;;20.70;97.00;21.00;100781.00;;;;4895157;28;110575;-63
2022/07/04 05:26:01;;;;;;;1.50;1.00;;;20.80;96.80;21.10;100776.00;;;;4894688;28;108475;-64
2022/07/04 05:28:27;;;;;;;1.33;1.23;;;20.90;96.50;21.10;100775.00;;;;4893699;28;121907;-65
2022/07/04 05:30:52;;;;;;;4.95;1.17;;;20.90;96.30;21.20;100782.00;;;;4894483;28;105143;-64
2022/07/04 05:33:18;;;;;;;0.90;0.88;;;21.00;96.20;21.30;100788.00;;;;4895041;28;93559;-64
2022/07/04 05:35:44;;;;;;;0.95;0.95;;;21.10;96.30;21.40;100787.00;;;;4895181;28;92908;-65
2022/07/04 05:38:10;;;;;;;0.80;0.80;;;21.20;95.80;21.50;100789.00;;;;4895330;28;99255;-63
2022/07/04 05:40:35;;;;;;;1.05;0.95;;;21.30;95.70;21.60;100794.00;;;;4876010;28;121127;-63
2022/07/04 05:43:01;;;;;;;1.15;0.85;;;21.40;95.50;21.70;100794.00;;;;4894178;28;110135;-64
2022/07/04 05:45:27;;;;;;;0.85;0.85;;;21.50;95.30;21.80;100800.00;;;;4895035;28;108648;-63
2022/07/04 05:47:52;;;;;;;1.80;1.48;;;21.60;95.10;22.00;100797.00;;;;4895195;28;93400;-64
2022/07/04 05:50:18;;;;;;;1.13;0.77;;;21.70;94.80;22.10;100811.00;;;;4894133;28;122681;-64
2022/07/04 05:52:44;;;;;;;1.00;0.93;;;21.90;94.50;22.20;100808.00;;;;4894568;28;92822;-63
2022/07/04 05:55:09;;;;;;;1.15;1.02;;;22.00;94.10;22.40;100812.00;;;;4894194;28;109211;-64
2022/07/04 05:57:35;;;;;;;1.30;1.20;;;22.10;93.70;22.50;100818.00;;;;4893440;28;121664;-64
2022/07/04 06:00:03;;;;;;;0.70;0.70;;;22.30;93.20;22.60;100826.00;;;;4894155;28;93364;-64
2022/07/04 06:02:29;;;;;;;2.67;1.10;;;22.40;92.80;22.60;100826.00;;;;4894595;28;92971;-64
2022/07/04 06:04:54;;;;;;;1.20;1.10;;;22.40;92.40;22.70;100829.00;;;;4895295;28;93004;-63
2022/07/04 06:07:20;;;;;;;0.75;0.75;;;22.50;92.20;22.70;100836.00;;;;4876154;28;122201;-64
2022/07/04 06:09:45;;;;;;;1.92;1.10;;;22.50;92.00;22.80;100839.00;;;;4875161;28;121271;-64
2022/07/04 06:12:11;;;;;;;0.80;0.80;;;22.60;91.80;22.90;100846.00;;;;4894327;28;95302;-64
2022/07/04 06:14:37;;;;;;;0.95;0.73;;;22.70;91.60;23.00;100847.00;;;;4893320;28;108890;-64
2022/07/04 06:17:03;;;;;;;1.00;0.98;;;22.80;91.40;23.20;100844.00;;;;4894652;28;107565;-64
2022/07/04 06:19:29;;;;;;;1.35;0.90;;;22.90;91.10;23.30;100844.00;;;;4894025;28;96030;-64
2022/07/04 06:21:54;;;;;;;1.15;1.05;;;23.10;90.70;23.40;100857.00;;;;4893694;28;108748;-64
2022/07/04 06:24:20;;;;;;;1.20;1.05;;;23.20;90.20;23.50;100857.00;;;;4894016;28;92645;-64
2022/07/04 06:26:46;;;;;;;2.35;0.98;;;23.20;89.90;23.50;100858.00;;;;4893268;28;122938;-63
2022/07/04 06:29:12;;;;;;;0.98;0.88;;;23.30;89.20;23.50;100855.00;;;;4893256;28;122726;-64
2022/07/04 06:31:37;;;;;;;0.77;0.77;;;23.30;88.40;23.50;100854.00;;;;4894353;28;102267;-64
2022/07/04 06:36:47;;;;;;;1.42;0.90;;;23.40;88.30;23.70;100856.00;;;;4892077;28;93191;-64
2022/07/04 06:39:13;;;;;;;1.00;0.88;;;23.50;87.80;23.80;100857.00;;;;4892576;28;122519;-64
2022/07/04 06:41:38;;;;;;;1.80;0.75;;;23.60;87.40;24.00;100860.00;;;;4894267;28;110896;-64
2022/07/04 06:44:05;;;;;;;1.13;1.02;;;23.80;87.20;24.10;100854.00;;;;4893563;28;108758;-65
2022/07/04 06:46:30;;;;;;;0.82;0.73;;;23.90;86.10;24.20;100853.00;;;;4893790;28;93231;-65
2022/07/04 06:48:56;;;;;;;1.63;0.93;;;24.00;85.00;24.30;100847.00;;;;4893405;28;95672;-64
2022/07/04 06:51:23;;;;;;;1.15;1.05;;;24.10;84.50;24.50;100852.00;;;;4893614;28;110529;-65
2022/07/04 06:53:50;;;;;;;1.15;0.88;;;24.30;84.00;24.70;100862.00;;;;4894561;28;92763;-64
2022/07/04 06:56:15;;;;;;;0.60;0.60;;;24.40;82.90;24.90;100861.00;;;;4893872;28;92825;-64
2022/07/04 06:58:41;;;;;;;1.25;1.15;;;24.60;81.60;25.00;100857.00;;;;4893808;28;93281;-65
2022/07/04 07:01:07;;;;;;;0.93;0.90;;;24.70;79.30;25.10;100864.00;;;;4892576;28;111732;-64
2022/07/04 07:03:32;;;;;;;1.23;1.10;;;24.90;78.50;25.30;100857.00;;;;4893077;28;108924;-64
2022/07/04 07:05:58;;;;;;;1.55;0.85;;;25.00;78.00;25.50;100866.00;;;;4892686;28;122704;-64
2022/07/04 07:08:24;;;;;;;1.17;0.80;;;25.20;77.70;25.70;100852.00;;;;4893727;28;92705;-64
2022/07/04 07:10:49;;;;;;;1.05;1.00;;;25.40;76.20;25.90;100845.00;;;;4893783;28;111573;-65
2022/07/04 07:13:15;;;;;;;1.60;1.08;;;25.60;75.40;26.20;100851.00;;;;4891903;28;93008;-65
2022/07/04 07:15:41;;;;;;;0.85;0.85;;;25.80;74.70;26.40;100853.00;;;;4894760;28;96511;-64
2022/07/04 07:18:07;;;;;;;0.77;0.77;;;26.10;73.00;26.60;100853.00;;;;4893125;28;121492;-64
2022/07/04 07:20:33;;;;;;;0.63;0.60;;;26.30;72.00;26.70;100845.00;;;;4896391;28;92165;-64
2022/07/04 07:23:01;;;;;;;1.30;0.77;;;26.40;69.80;26.90;100853.00;;;;4897005;28;95244;-65
2022/07/04 07:25:27;;;;;;;0.68;0.65;;;26.60;69.00;27.00;100851.00;;;;4896510;28;111726;-65
2022/07/04 07:27:53;;;;;;;1.00;0.90;;;26.70;68.10;27.20;100844.00;;;;4896157;28;122652;-62
2022/07/04 07:30:19;;;;;;;1.60;0.90;;;26.90;66.80;27.30;100844.00;;;;4894600;28;108029;-64
2022/07/04 07:32:45;;;;;;;1.17;1.08;;;27.00;65.70;27.40;100846.00;;;;4896351;28;95966;-64
2022/07/04 07:35:11;;;;;;;1.58;1.30;;;27.20;65.00;27.60;100856.00;;;;4896354;28;93023;-64
2022/07/04 07:37:37;;;;;;;0.75;0.75;;;27.30;64.10;27.80;100850.00;;;;4896594;28;95224;-65
2022/07/04 07:40:04;;;;;;;1.70;1.10;;;27.50;63.30;28.00;100845.00;;;;4896279;28;110443;-62
2022/07/04 07:42:29;;;;;;;2.17;1.63;;;27.70;61.90;28.00;100849.00;;;;4896124;28;93748;-65
2022/07/04 07:44:56;;;;;;;1.27;1.17;;;27.80;61.30;28.10;100855.00;;;;4897302;28;92526;-65
2022/07/04 07:47:21;;;;;;;2.80;0.90;;;27.90;60.70;28.30;100861.00;;;;4896836;28;93028;-64
2022/07/04 07:49:47;;;;;;;1.17;0.95;;;28.00;60.50;28.50;100865.00;;;;4878656;28;108542;-62
2022/07/04 07:52:15;;;;;;;1.50;1.00;;;28.20;59.50;28.50;100858.00;;;;4896581;28;93937;-62
2022/07/04 07:54:41;;;;;;;0.85;0.85;;;28.30;59.00;28.50;100859.00;;;;4896659;28;93960;-62
2022/07/04 07:57:06;;;;;;;4.90;1.10;;;28.30;58.20;28.40;100856.00;;;;4895534;28;122238;-66
2022/07/04 07:59:32;;;;;;;0.90;0.90;;;28.30;57.50;28.30;100866.00;;;;4896067;28;110503;-63
2022/07/04 08:01:58;;;;;;;1.45;1.02;;;28.20;57.00;28.10;100864.00;;;;4897349;28;92887;-62
2022/07/04 08:04:35;;;;;;;0.80;0.73;;;28.00;57.00;28.10;100860.00;;;;4895327;28;122791;-63
2022/07/04 08:07:07;;;;;;;0.75;0.75;;;28.00;57.20;28.20;100864.00;;;;4877840;28;93504;-62
2022/07/04 08:09:34;;;;;;;1.02;0.73;;;28.00;57.30;28.40;100868.00;;;;4895180;28;92033;-63
2022/07/04 08:12:01;;;;;;;0.52;0.50;;;28.20;56.70;28.60;100859.00;;;;4897311;28;92674;-63
2022/07/04 08:14:27;;;;;;;0.68;0.60;;;28.30;56.00;28.90;100861.00;;;;4895670;28;94188;-62
2022/07/04 08:16:53;;;;;;;0.77;0.68;;;28.60;55.60;29.10;100855.00;;;;4895907;28;93863;-63
2022/07/04 08:19:19;;;;;;;0.65;0.50;;;28.80;54.80;29.30;100859.00;;;;4895713;28;110314;-63
2022/07/04 08:21:46;;;;;;;0.82;0.82;;;29.00;54.30;29.40;100857.00;;;;4896978;28;93009;-65
2022/07/04 08:24:15;;;;;;;1.13;0.80;;;29.10;53.90;29.60;100866.00;;;;4896161;28;93067;-63
2022/07/04 08:26:42;;;;;;;0.80;0.80;;;29.30;53.50;29.60;100854.00;;;;4895758;28;121059;-63
2022/07/04 08:29:08;;;;;;;1.52;0.80;;;29.40;53.00;29.50;100867.00;;;;4896117;28;93071;-63
2022/07/04 08:31:34;;;;;;;1.15;0.85;;;29.30;52.30;29.50;100862.00;;;;4895713;28;97564;-63
2022/07/04 08:33:59;;;;;;;0.75;0.63;;;29.30;52.30;29.50;100868.00;;;;4895181;28;121151;-63
2022/07/04 08:36:25;;;;;;;1.58;0.73;;;29.30;51.70;29.60;100864.00;;;;4895074;28;121480;-64
2022/07/04 08:38:50;;;;;;;1.02;0.93;;;29.30;52.00;29.80;100865.00;;;;4894116;28;110073;-64
2022/07/04 08:41:17;;;;;;;1.98;0.90;;;29.50;51.60;29.80;100853.00;;;;4894512;28;108600;-66
2022/07/04 08:43:47;;;;;;;0.90;0.70;;;29.60;51.30;29.90;100867.00;;;;4895821;28;98097;-63
2022/07/04 08:46:19;;;;;;;1.23;0.80;;;29.60;51.30;29.90;100860.00;;;;4894964;28;106334;-64
2022/07/04 08:48:52;;;;;;;0.50;0.40;;;29.70;50.50;29.80;100867.00;;;;4896372;28;92810;-64
2022/07/04 08:51:51;;;;;;;0.70;0.55;;;29.60;49.70;29.40;100869.00;;;;4877476;28;102251;-64
2022/07/04 08:59:49;;;;;;;0.50;0.50;;;29.20;49.10;29.10;100862.00;;;;4894649;28;92182;-64
2022/07/04 09:02:18;;;;;;;0.63;0.55;;;29.00;49.40;29.30;100872.00;;;;4895941;28;92945;-64
2022/07/04 09:04:44;;;;;;;0.88;0.77;;;29.00;49.90;29.60;100869.00;;;;4877484;28;93740;-64
2022/07/04 09:07:12;;;;;;;0.50;0.50;;;29.20;49.70;29.90;100875.00;;;;4894061;28;122731;-64
2022/07/04 09:09:40;;;;;;;2.15;0.73;;;29.50;49.30;30.10;100858.00;;;;4895367;28;92760;-64
2022/07/04 09:12:08;;;;;;;0.90;0.50;;;29.70;48.00;30.00;100861.00;;;;4895899;28;92882;-64
2022/07/04 09:14:33;;;;;;;0.75;0.47;;;29.70;47.40;30.10;100866.00;;;;4894812;28;102411;-64
2022/07/04 09:17:00;;;;;;;3.90;0.68;;;29.80;47.20;30.00;100868.00;;;;4894785;28;122461;-64
2022/07/04 09:19:26;;;;;;;1.95;0.65;;;29.70;46.00;29.80;100869.00;;;;4895224;28;92692;-64
2022/07/04 09:21:51;;;;;;;0.70;0.70;;;29.70;46.00;29.80;100870.00;;;;4895601;28;92775;-64
2022/07/04 09:24:48;;;;;;;0.50;0.50;;;29.50;46.40;29.90;100865.00;;;;4895987;28;92543;-63
2022/07/04 09:27:31;;;;;;;0.75;0.75;;;29.60;46.50;29.90;100860.00;;;;4895114;28;92975;-64
2022/07/04 09:29:57;;;;;;;2.67;0.60;;;29.70;46.30;30.10;100871.00;;;;4896301;28;92674;-64
2022/07/04 09:32:35;;;;;;;1.00;0.50;;;29.70;46.60;30.30;100862.00;;;;4895280;28;93911;-64
2022/07/04 09:35:02;;;;;;;1.13;0.50;;;29.80;46.50;30.50;100861.00;;;;4894959;28;94173;-63
2022/07/04 09:37:41;;;;;;;0.80;0.52;;;30.00;46.20;30.50;100867.00;;;;4895237;28;93656;-64
2022/07/04 09:40:10;;;;;;;0.40;0.40;;;30.20;45.70;30.60;100866.00;;;;4895050;28;92981;-64
2022/07/04 09:42:41;;;;;;;0.65;0.57;;;30.20;45.50;30.80;100858.00;;;;4875597;28;93012;-64
2022/07/04 09:45:11;;;;;;;0.50;0.50;;;30.30;45.20;31.00;100857.00;;;;4894242;28;94971;-64
2022/07/04 09:47:39;;;;;;;1.10;0.38;;;30.60;45.30;31.10;100856.00;;;;4894192;28;93662;-63
2022/07/04 09:50:14;;;;;;;1.08;0.38;;;30.70;44.20;31.00;100849.00;;;;4895366;28;92192;-63
2022/07/04 09:53:00;;;;;;;1.25;0.75;;;30.70;43.90;31.00;100855.00;;;;4894847;28;93870;-63
2022/07/04 09:55:39;;;;;;;0.82;0.60;;;30.70;43.80;31.00;100857.00;;;;4894023;28;102499;-64
2022/07/04 09:58:07;;;;;;;0.70;0.70;;;30.70;43.60;31.00;100855.00;;;;4893830;28;93677;-64
2022/07/04 10:00:39;;;;;;;0.43;0.43;;;30.70;43.60;31.00;100849.00;;;;4877309;28;93090;-63
2022/07/04 10:03:18;;;;;;;0.50;0.40;;;30.60;43.40;31.10;100859.00;;;;4892050;28;92772;-64
2022/07/04 10:05:46;;;;;;;0.63;0.60;;;30.70;43.80;31.30;100852.00;;;;4895527;28;94641;-64
2022/07/04 10:08:12;;;;;;;0.30;0.30;;;30.80;43.70;31.50;100855.00;;;;4894878;28;94385;-64
2022/07/04 10:10:39;;;;;;;1.92;0.55;;;30.90;43.50;31.70;100846.00;;;;4895030;28;102615;-64
2022/07/04 10:13:10;;;;;;;0.30;0.30;;;31.10;43.20;31.70;100846.00;;;;4894839;28;93944;-64
2022/07/04 10:15:40;;;;;;;0.88;0.50;;;31.20;42.90;32.00;100849.00;;;;4876317;28;92331;-64
2022/07/04 10:18:08;;;;;;;3.92;0.70;;;31.40;43.00;32.30;100849.00;;;;4888996;28;93076;-64
2022/07/04 10:20:34;;;;;;;0.32;0.32;;;31.70;42.90;32.60;100851.00;;;;4893532;28;102848;-65
2022/07/04 10:23:01;;;;;;;0.50;0.50;;;31.90;42.30;32.90;100846.00;;;;4893593;28;93878;-64
2022/07/04 10:25:27;;;;;;;0.30;0.30;;;32.20;42.10;33.20;100843.00;;;;4894021;28;93173;-64
2022/07/04 10:27:53;;;;;;;1.08;0.77;;;32.50;41.90;33.30;100846.00;;;;4893930;28;92915;-64
2022/07/04 10:30:39;;;;;;;0.70;0.55;;;32.70;41.30;33.40;100838.00;;;;4879780;28;110353;-65
2022/07/04 10:33:08;;;;;;;0.90;0.55;;;32.70;40.20;33.30;100845.00;;;;4900143;28;92961;-64
2022/07/04 10:35:54;;;;;;;0.68;0.68;;;32.70;40.20;33.30;100849.00;;;;4876301;28;93845;-63
2022/07/04 10:38:29;;;;;;;0.63;0.50;;;32.70;39.90;33.30;100835.00;;;;4894149;28;92799;-64
2022/07/04 10:40:59;;;;;;;0.50;0.40;;;32.70;39.60;33.30;100838.00;;;;4893176;28;99583;-64
2022/07/04 10:43:30;;;;;;;0.98;0.63;;;32.70;39.70;33.10;100848.00;;;;4894064;28;92992;-64
2022/07/04 10:46:10;;;;;;;0.75;0.45;;;32.60;40.10;32.90;100848.00;;;;4893332;28;93877;-64
2022/07/04 10:48:36;;;;;;;0.60;0.60;;;32.50;40.20;32.40;100838.00;;;;4892581;28;93904;-64
2022/07/04 10:51:06;;;;;;;0.65;0.57;;;32.10;40.00;32.10;100844.00;;;;4893287;28;106246;-65
2022/07/04 10:54:19;;;;;;;0.63;0.57;;;31.70;40.60;32.00;100846.00;;;;4893243;28;94300;-65
2022/07/04 10:56:46;;;;;;;2.33;0.77;;;31.60;40.90;31.90;100836.00;;;;4887705;28;94009;-64
2022/07/04 10:59:25;;;;;;;1.85;0.95;;;31.50;40.80;31.90;100844.00;;;;4893723;28;93817;-64